Fantasia — ICJY — position and weather

sailwx.info

Track history (hours):
 
Tides and Currents Weather Stations Pressure Air Temp Water Temp Dewpoint Dewpoint Depression Visibility Wind Speed Wind Dir Waves Ship Positions

Fantasia

Last reported at 2014-Oct-27 15:33 UTC. Time now 2014-Oct-31 05:43 UTC.
Position N 36°29' E 026°44'.

Length 183 m; draft 10.1 m.

Type: Tanker. MMSI: 247279600.

Date/timePositionNaut miles runAvg speedWind from/ knotsBaromVisibWave heightAir tempDewpointWater temp
2014-Oct-27 15:33N 36°29' E 026°44'1312.8
2014-Oct-27 14:33N 36°39' E 026°34'1313.1
2014-Oct-27 13:33N 36°49' E 026°23'1313.4
2014-Oct-27 12:33N 36°59' E 026°12'1313.2
2014-Oct-27 11:33N 37°07' E 025°59'1312.7
2014-Oct-27 10:33N 37°16' E 025°47'1212.3
2014-Oct-27 09:33N 37°28' E 025°44'1312.9
2014-Oct-27 08:33N 37°41' E 025°44'1312.9
2014-Oct-27 07:33N 37°53' E 025°44'232 8.8
2014-Oct-26 05:20N 40°55' E 028°51'3 0.3
2014-Oct-25 19:28N 40°57' E 028°53'3 3.5
2014-Oct-25 18:33N 40°56' E 028°57'8 8.1
2014-Oct-25 17:32N 40°49' E 029°03'1212.2
2014-Oct-25 16:33N 40°45' E 029°18'9 9.0
2014-Oct-25 15:30N 40°45' E 029°31'10 0.2
2014-Oct-23 22:23N 40°45' E 029°44'4 2.0
2014-Oct-23 20:31N 40°46' E 029°39'0 0.0
2014-Oct-23 04:19N 40°46' E 029°39'0 0.0
2014-Oct-23 02:31N 40°46' E 029°39'1 0.1
2014-Oct-22 20:30N 40°46' E 029°38'6 6.3
2014-Oct-22 19:33N 40°45' E 029°30'1 1.0
2014-Oct-22 18:22N 40°44' E 029°29'0 0.0
2014-Oct-22 17:28N 40°44' E 029°29'0 0.1
2014-Oct-22 16:28N 40°44' E 029°29'0 0.0
2014-Oct-22 15:22N 40°44' E 029°29'0 0.0
2014-Oct-22 14:28N 40°44' E 029°29'0 0.0
2014-Oct-22 13:28N 40°44' E 029°29'0 0.0
2014-Oct-22 11:28N 40°44' E 029°29'0 0.0
2014-Oct-22 10:10N 40°44' E 029°29'0 0.1
2014-Oct-22 09:16N 40°44' E 029°29'0 0.1
2014-Oct-22 07:22N 40°44' E 029°29'0 0.1
2014-Oct-22 06:22N 40°44' E 029°29'0 0.0
2014-Oct-22 05:16N 40°44' E 029°29'0 0.0
2014-Oct-22 01:22N 40°44' E 029°29'0 0.0
2014-Oct-21 22:16N 40°44' E 029°29'0 0.1
2014-Oct-21 19:28N 40°44' E 029°29'0 0.0
2014-Oct-21 16:16N 40°44' E 029°29'0 0.0
2014-Oct-21 12:28N 40°44' E 029°29'0 0.0
2014-Oct-21 11:28N 40°44' E 029°29'0 0.1
2014-Oct-21 09:28N 40°44' E 029°29'0 0.0
2014-Oct-21 07:04N 40°44' E 029°29'0 0.1
2014-Oct-21 05:22N 40°44' E 029°29'0 0.1
2014-Oct-21 04:16N 40°44' E 029°29'0 0.0
2014-Oct-21 01:28N 40°44' E 029°29'0 0.0
2014-Oct-21 00:16N 40°44' E 029°29'0 0.0
2014-Oct-20 23:22N 40°44' E 029°29'0 0.0
2014-Oct-20 22:28N 40°44' E 029°29'0 0.0
2014-Oct-20 21:04N 40°44' E 029°29'0 0.1
2014-Oct-20 20:22N 40°44' E 029°29'0 0.0
2014-Oct-20 19:16N 40°44' E 029°29'0 0.0
2014-Oct-20 18:28N 40°44' E 029°29'0 0.0
2014-Oct-20 17:22N 40°44' E 029°29'0 0.0
2014-Oct-20 16:04N 40°44' E 029°29'0 0.0
2014-Oct-20 13:25N 40°44' E 029°29'0 0.1
2014-Oct-20 11:04N 40°44' E 029°29'1 0.1
2014-Oct-20 06:32N 40°44' E 029°29'1 0.6
2014-Oct-20 05:27N 40°44' E 029°30'0 0.0
2014-Oct-20 04:27N 40°44' E 029°30'0 0.0
2014-Oct-20 03:21N 40°44' E 029°30'0 0.0
2014-Oct-20 02:33N 40°44' E 029°30'0 0.0
2014-Oct-20 01:33N 40°44' E 029°30'0 0.0
2014-Oct-20 00:33N 40°44' E 029°30'0 0.0
2014-Oct-19 23:27N 40°44' E 029°30'0 0.0
2014-Oct-19 22:09N 40°44' E 029°30'0 0.0
2014-Oct-19 21:33N 40°44' E 029°30'0 0.0
2014-Oct-19 20:33N 40°44' E 029°30'0 0.0
2014-Oct-19 19:33N 40°44' E 029°30'0 0.0
2014-Oct-19 18:33N 40°44' E 029°30'0 0.0
2014-Oct-19 17:33N 40°44' E 029°30'0 0.0
2014-Oct-19 16:21N 40°44' E 029°30'0 0.0
2014-Oct-19 15:33N 40°44' E 029°30'0 0.0
2014-Oct-19 14:33N 40°44' E 029°30'0 0.0
2014-Oct-19 10:12N 40°44' E 029°30'0 0.0
2014-Oct-19 09:18N 40°44' E 029°30'0 0.0
2014-Oct-19 07:30N 40°44' E 029°30'0 0.0
2014-Oct-19 06:30N 40°44' E 029°30'0 0.0
2014-Oct-19 05:30N 40°44' E 029°30'0 0.0
2014-Oct-19 04:24N 40°44' E 029°30'0 0.0
2014-Oct-19 03:30N 40°44' E 029°30'0 0.0
2014-Oct-19 02:30N 40°44' E 029°30'0 0.0
2014-Oct-19 01:24N 40°44' E 029°30'0 0.0
2014-Oct-19 00:12N 40°44' E 029°30'0 0.0
2014-Oct-18 23:30N 40°44' E 029°30'0 0.0
2014-Oct-18 22:18N 40°44' E 029°30'0 0.0
2014-Oct-18 21:30N 40°44' E 029°30'0 0.0
2014-Oct-18 20:18N 40°44' E 029°30'0 0.0
2014-Oct-18 19:30N 40°44' E 029°30'0 0.0
2014-Oct-18 18:24N 40°44' E 029°30'0 0.0
2014-Oct-18 17:18N 40°44' E 029°30'0 0.0
2014-Oct-18 16:30N 40°44' E 029°30'0 0.0
2014-Oct-18 15:30N 40°44' E 029°30'0 0.0
2014-Oct-18 14:24N 40°44' E 029°30'0 0.0
2014-Oct-18 13:30N 40°44' E 029°30'  
Track history (hours):
 
Tides and Currents Weather Stations Pressure Air Temp Water Temp Dewpoint Dewpoint Depression Visibility Wind Speed Wind Dir Waves Ship Positions

Fantasia

Last reported at 2014-Oct-27 15:33 UTC. Time now 2014-Oct-31 05:43 UTC.
Position N 36°29' E 026°44'.

Length 183 m; draft 10.1 m.

Type: Tanker. MMSI: 247279600.

Date/timePositionNaut miles runAvg speedWind from/ knotsBaromVisibWave heightAir tempDewpointWater temp
2014-Oct-27 15:33N 36°29' E 026°44'1312.8
2014-Oct-27 14:33N 36°39' E 026°34'1313.1
2014-Oct-27 13:33N 36°49' E 026°23'1313.4
2014-Oct-27 12:33N 36°59' E 026°12'1313.2
2014-Oct-27 11:33N 37°07' E 025°59'1312.7
2014-Oct-27 10:33N 37°16' E 025°47'1212.3
2014-Oct-27 09:33N 37°28' E 025°44'1312.9
2014-Oct-27 08:33N 37°41' E 025°44'1312.9
2014-Oct-27 07:33N 37°53' E 025°44'232 8.8
2014-Oct-26 05:20N 40°55' E 028°51'3 0.3
2014-Oct-25 19:28N 40°57' E 028°53'3 3.5
2014-Oct-25 18:33N 40°56' E 028°57'8 8.1
2014-Oct-25 17:32N 40°49' E 029°03'1212.2
2014-Oct-25 16:33N 40°45' E 029°18'9 9.0
2014-Oct-25 15:30N 40°45' E 029°31'10 0.2
2014-Oct-23 22:23N 40°45' E 029°44'4 2.0
2014-Oct-23 20:31N 40°46' E 029°39'0 0.0
2014-Oct-23 04:19N 40°46' E 029°39'0 0.0
2014-Oct-23 02:31N 40°46' E 029°39'1 0.1
2014-Oct-22 20:30N 40°46' E 029°38'6 6.3
2014-Oct-22 19:33N 40°45' E 029°30'1 1.0
2014-Oct-22 18:22N 40°44' E 029°29'0 0.0
2014-Oct-22 17:28N 40°44' E 029°29'0 0.1
2014-Oct-22 16:28N 40°44' E 029°29'0 0.0
2014-Oct-22 15:22N 40°44' E 029°29'0 0.0
2014-Oct-22 14:28N 40°44' E 029°29'0 0.0
2014-Oct-22 13:28N 40°44' E 029°29'0 0.0
2014-Oct-22 11:28N 40°44' E 029°29'0 0.0
2014-Oct-22 10:10N 40°44' E 029°29'0 0.1
2014-Oct-22 09:16N 40°44' E 029°29'0 0.1
2014-Oct-22 07:22N 40°44' E 029°29'0 0.1
2014-Oct-22 06:22N 40°44' E 029°29'0 0.0
2014-Oct-22 05:16N 40°44' E 029°29'0 0.0
2014-Oct-22 01:22N 40°44' E 029°29'0 0.0
2014-Oct-21 22:16N 40°44' E 029°29'0 0.1
2014-Oct-21 19:28N 40°44' E 029°29'0 0.0
2014-Oct-21 16:16N 40°44' E 029°29'0 0.0
2014-Oct-21 12:28N 40°44' E 029°29'0 0.0
2014-Oct-21 11:28N 40°44' E 029°29'0 0.1
2014-Oct-21 09:28N 40°44' E 029°29'0 0.0
2014-Oct-21 07:04N 40°44' E 029°29'0 0.1
2014-Oct-21 05:22N 40°44' E 029°29'0 0.1
2014-Oct-21 04:16N 40°44' E 029°29'0 0.0
2014-Oct-21 01:28N 40°44' E 029°29'0 0.0
2014-Oct-21 00:16N 40°44' E 029°29'0 0.0
2014-Oct-20 23:22N 40°44' E 029°29'0 0.0
2014-Oct-20 22:28N 40°44' E 029°29'0 0.0
2014-Oct-20 21:04N 40°44' E 029°29'0 0.1
2014-Oct-20 20:22N 40°44' E 029°29'0 0.0
2014-Oct-20 19:16N 40°44' E 029°29'0 0.0
2014-Oct-20 18:28N 40°44' E 029°29'0 0.0
2014-Oct-20 17:22N 40°44' E 029°29'0 0.0
2014-Oct-20 16:04N 40°44' E 029°29'0 0.0
2014-Oct-20 13:25N 40°44' E 029°29'0 0.1
2014-Oct-20 11:04N 40°44' E 029°29'1 0.1
2014-Oct-20 06:32N 40°44' E 029°29'1 0.6
2014-Oct-20 05:27N 40°44' E 029°30'0 0.0
2014-Oct-20 04:27N 40°44' E 029°30'0 0.0
2014-Oct-20 03:21N 40°44' E 029°30'0 0.0
2014-Oct-20 02:33N 40°44' E 029°30'0 0.0
2014-Oct-20 01:33N 40°44' E 029°30'0 0.0
2014-Oct-20 00:33N 40°44' E 029°30'0 0.0
2014-Oct-19 23:27N 40°44' E 029°30'0 0.0
2014-Oct-19 22:09N 40°44' E 029°30'0 0.0
2014-Oct-19 21:33N 40°44' E 029°30'0 0.0
2014-Oct-19 20:33N 40°44' E 029°30'0 0.0
2014-Oct-19 19:33N 40°44' E 029°30'0 0.0
2014-Oct-19 18:33N 40°44' E 029°30'0 0.0
2014-Oct-19 17:33N 40°44' E 029°30'0 0.0
2014-Oct-19 16:21N 40°44' E 029°30'0 0.0
2014-Oct-19 15:33N 40°44' E 029°30'0 0.0
2014-Oct-19 14:33N 40°44' E 029°30'0 0.0
2014-Oct-19 10:12N 40°44' E 029°30'0 0.0
2014-Oct-19 09:18N 40°44' E 029°30'0 0.0
2014-Oct-19 07:30N 40°44' E 029°30'0 0.0
2014-Oct-19 06:30N 40°44' E 029°30'0 0.0
2014-Oct-19 05:30N 40°44' E 029°30'0 0.0
2014-Oct-19 04:24N 40°44' E 029°30'0 0.0
2014-Oct-19 03:30N 40°44' E 029°30'0 0.0
2014-Oct-19 02:30N 40°44' E 029°30'0 0.0
2014-Oct-19 01:24N 40°44' E 029°30'0 0.0
2014-Oct-19 00:12N 40°44' E 029°30'0 0.0
2014-Oct-18 23:30N 40°44' E 029°30'0 0.0
2014-Oct-18 22:18N 40°44' E 029°30'0 0.0
2014-Oct-18 21:30N 40°44' E 029°30'0 0.0
2014-Oct-18 20:18N 40°44' E 029°30'0 0.0
2014-Oct-18 19:30N 40°44' E 029°30'0 0.0
2014-Oct-18 18:24N 40°44' E 029°30'0 0.0
2014-Oct-18 17:18N 40°44' E 029°30'0 0.0
2014-Oct-18 16:30N 40°44' E 029°30'0 0.0
2014-Oct-18 15:30N 40°44' E 029°30'0 0.0
2014-Oct-18 14:24N 40°44' E 029°30'0 0.0
2014-Oct-18 13:30N 40°44' E 029°30'  

Dump ship's entire track history